createdAt,value
2023-04-04T00:00:20.714Z,8.73
2023-04-04T00:02:47.515Z,9.32
2023-04-04T00:05:14.088Z,8.18
2023-04-04T00:07:40.566Z,8.43
2023-04-04T00:10:07.652Z,7.97
2023-04-04T00:12:34.170Z,10.20
2023-04-04T00:15:01.330Z,9.13
2023-04-04T00:17:27.856Z,10.45
2023-04-04T00:19:54.343Z,9.15
2023-04-04T00:22:21.021Z,10.20
2023-04-04T00:24:47.539Z,8.60
2023-04-04T00:27:14.099Z,8.52
2023-04-04T00:29:40.780Z,8.45
2023-04-04T00:32:07.311Z,8.93
2023-04-04T00:34:34.067Z,8.77
2023-04-04T00:37:00.561Z,8.88
2023-04-04T00:39:27.206Z,9.38
2023-04-04T00:41:53.927Z,8.40
2023-04-04T00:44:20.535Z,8.70
2023-04-04T00:46:47.074Z,8.70
2023-04-04T00:49:13.683Z,8.32
2023-04-04T00:51:40.199Z,7.60
2023-04-04T00:54:06.810Z,8.13
2023-04-04T00:56:36.230Z,8.90
2023-04-04T00:59:02.862Z,8.65
2023-04-04T01:01:31.504Z,8.63
2023-04-04T01:03:58.103Z,8.82
2023-04-04T01:06:24.891Z,8.95
2023-04-04T01:08:52.514Z,9.38
2023-04-04T01:11:19.051Z,8.95
2023-04-04T01:13:46.164Z,9.32
2023-04-04T01:16:12.672Z,10.43
2023-04-04T01:18:40.711Z,9.07
2023-04-04T01:21:12.722Z,9.63
2023-04-04T01:24:01.402Z,9.32
2023-04-04T01:26:28.651Z,9.32
2023-04-04T01:28:56.087Z,9.43
2023-04-04T01:31:37.887Z,9.77
2023-04-04T01:34:10.682Z,9.05
2023-04-04T01:36:47.850Z,9.93
2023-04-04T01:39:37.075Z,8.90
2023-04-04T01:42:03.966Z,8.85
2023-04-04T01:44:30.444Z,10.52
2023-04-04T01:46:56.972Z,9.88
2023-04-04T01:49:23.904Z,9.95
2023-04-04T01:51:51.784Z,10.98
2023-04-04T01:54:19.166Z,11.18
2023-04-04T01:56:46.506Z,9.50
2023-04-04T01:59:13.051Z,9.93
2023-04-04T02:01:39.723Z,9.15
2023-04-04T02:04:07.293Z,8.80
2023-04-04T02:06:33.963Z,9.50
2023-04-04T02:09:01.009Z,9.68
2023-04-04T02:11:27.625Z,9.60
2023-04-04T02:13:54.099Z,9.52
2023-04-04T02:16:21.319Z,13.27
2023-04-04T02:18:48.030Z,9.27
2023-04-04T02:21:14.561Z,9.43
2023-04-04T02:23:41.731Z,11.48
2023-04-04T02:26:08.204Z,9.93
2023-04-04T02:28:34.789Z,9.45
2023-04-04T02:31:02.478Z,9.65
2023-04-04T02:33:29.752Z,9.02
2023-04-04T02:35:59.664Z,8.82
2023-04-04T02:38:26.398Z,9.05
2023-04-04T02:40:53.339Z,10.15
2023-04-04T02:43:19.983Z,8.77
2023-04-04T02:45:48.305Z,9.07
2023-04-04T02:48:14.794Z,9.00
2023-04-04T02:50:41.542Z,9.48
2023-04-04T02:53:08.166Z,9.02
2023-04-04T02:55:34.669Z,8.75
2023-04-04T02:58:02.047Z,8.30
2023-04-04T03:00:28.695Z,9.95
2023-04-04T03:02:56.236Z,8.45
2023-04-04T03:05:27.005Z,8.45
2023-04-04T03:07:58.516Z,8.80
2023-04-04T03:10:26.353Z,9.15
2023-04-04T03:12:53.180Z,8.90
2023-04-04T03:15:19.769Z,8.75
2023-04-04T03:17:46.755Z,8.82
2023-04-04T03:20:14.084Z,9.30
2023-04-04T03:22:41.778Z,9.57
2023-04-04T03:25:08.813Z,9.43
2023-04-04T03:27:35.499Z,10.15
2023-04-04T03:30:02.345Z,9.18
2023-04-04T03:32:28.919Z,9.88
2023-04-04T03:34:55.833Z,9.95
2023-04-04T03:37:23.021Z,9.93
2023-04-04T03:39:49.620Z,9.70
2023-04-04T03:42:16.795Z,9.13
2023-04-04T03:44:43.316Z,11.48
2023-04-04T03:47:09.927Z,9.55
2023-04-04T03:49:36.406Z,9.95
2023-04-04T03:52:03.282Z,9.02
2023-04-04T03:54:29.853Z,9.82
2023-04-04T03:56:57.154Z,13.82
2023-04-04T03:59:23.930Z,16.05
2023-04-04T04:01:50.718Z,14.00
2023-04-04T04:04:17.191Z,14.20
2023-04-04T04:06:44.003Z,11.27
2023-04-04T04:09:12.272Z,9.90
2023-04-04T04:11:38.863Z,9.70
2023-04-04T04:14:05.414Z,10.35
2023-04-04T04:16:32.993Z,9.93
2023-04-04T04:18:59.757Z,8.93
2023-04-04T04:21:26.310Z,10.73
2023-04-04T04:23:52.812Z,9.15
2023-04-04T04:26:21.469Z,9.93
2023-04-04T04:28:48.373Z,11.60
2023-04-04T04:31:15.028Z,9.82
2023-04-04T04:33:41.693Z,9.75
2023-04-04T04:36:08.460Z,10.75
2023-04-04T04:38:35.030Z,10.10
2023-04-04T04:41:02.078Z,9.95
2023-04-04T04:43:28.657Z,10.55
2023-04-04T04:45:55.148Z,11.57
2023-04-04T04:48:21.873Z,10.18
2023-04-04T04:50:48.644Z,10.38
2023-04-04T04:53:15.393Z,10.32
2023-04-04T04:55:45.002Z,10.45
2023-04-04T04:58:11.603Z,10.77
2023-04-04T05:00:39.598Z,9.82
2023-04-04T05:03:09.067Z,12.65
2023-04-04T05:05:36.221Z,10.38
2023-04-04T05:08:03.768Z,11.70
2023-04-04T05:10:31.035Z,15.32
2023-04-04T05:12:57.809Z,12.20
2023-04-04T05:15:29.296Z,10.88
2023-04-04T05:17:55.911Z,10.32
2023-04-04T05:20:23.222Z,10.77
2023-04-04T05:22:51.571Z,11.45
2023-04-04T05:25:18.414Z,11.45
2023-04-04T05:27:49.140Z,10.48
2023-04-04T05:30:16.343Z,11.18
2023-04-04T05:32:45.312Z,10.50
2023-04-04T05:35:12.159Z,10.95
2023-04-04T05:37:40.112Z,14.48
2023-04-04T05:40:08.312Z,15.13
2023-04-04T05:42:34.886Z,17.00
2023-04-04T05:45:01.618Z,14.93
2023-04-04T05:47:28.217Z,13.10
2023-04-04T05:49:54.846Z,13.60
2023-04-04T05:52:21.790Z,11.05
2023-04-04T05:54:48.311Z,14.93
2023-04-04T05:57:14.882Z,18.75
2023-04-04T05:59:41.508Z,18.60
2023-04-04T06:02:08.323Z,14.90
2023-04-04T06:04:34.965Z,14.20
2023-04-04T06:07:01.710Z,32.35
2023-04-04T06:09:28.233Z,12.68
2023-04-04T06:11:54.830Z,16.27
2023-04-04T06:14:21.454Z,15.07
2023-04-04T06:16:48.054Z,14.15
2023-04-04T06:19:14.566Z,13.02
2023-04-04T06:21:41.220Z,16.88
2023-04-04T06:24:07.805Z,18.35
2023-04-04T06:26:34.546Z,12.88
2023-04-04T06:29:01.063Z,12.40
2023-04-04T06:31:27.664Z,26.70
2023-04-04T06:33:54.199Z,13.95
2023-04-04T06:36:21.211Z,14.45
2023-04-04T06:38:47.797Z,12.98
2023-04-04T06:41:14.342Z,12.93
2023-04-04T06:43:40.837Z,14.85
2023-04-04T06:46:08.027Z,13.93
2023-04-04T06:48:34.716Z,12.82
2023-04-04T06:51:01.370Z,18.15
2023-04-04T06:53:27.964Z,11.23
2023-04-04T06:55:54.555Z,14.75
2023-04-04T06:58:21.272Z,11.18
2023-04-04T07:00:47.868Z,10.10
2023-04-04T07:03:15.925Z,14.98
2023-04-04T07:05:42.794Z,14.98
2023-04-04T07:08:09.606Z,20.90
2023-04-04T07:10:36.187Z,13.88
2023-04-04T07:13:02.829Z,12.52
2023-04-04T07:15:29.344Z,10.50
2023-04-04T07:17:55.908Z,14.00
2023-04-04T07:20:22.546Z,10.80
2023-04-04T07:22:49.186Z,12.10
2023-04-04T07:25:15.874Z,11.18
2023-04-04T07:27:42.387Z,13.23
2023-04-04T07:30:09.531Z,9.95
2023-04-04T07:32:36.052Z,10.30
2023-04-04T07:35:02.705Z,10.68
2023-04-04T07:37:29.219Z,16.13
2023-04-04T07:39:55.863Z,8.77
2023-04-04T07:42:25.473Z,9.07
2023-04-04T07:44:52.625Z,12.43
2023-04-04T07:47:19.236Z,10.27
2023-04-04T07:49:45.845Z,9.18
2023-04-04T07:52:12.651Z,8.77
2023-04-04T07:54:40.498Z,8.70
2023-04-04T07:57:09.661Z,8.65
2023-04-04T07:59:37.326Z,9.77
2023-04-04T08:02:04.011Z,8.48
2023-04-04T08:04:30.678Z,7.97
2023-04-04T08:06:57.574Z,10.38
2023-04-04T08:09:24.933Z,8.10
2023-04-04T08:11:51.709Z,9.70
2023-04-04T08:14:18.321Z,7.95
2023-04-04T08:16:44.802Z,7.50
2023-04-04T08:19:11.509Z,7.70
2023-04-04T08:21:38.155Z,7.22
2023-04-04T08:24:05.079Z,8.13
2023-04-04T08:26:32.005Z,9.05
2023-04-04T08:28:58.682Z,7.28
2023-04-04T08:31:25.329Z,7.00
2023-04-04T08:33:52.520Z,6.78
2023-04-04T08:36:19.653Z,7.20
2023-04-04T08:38:46.190Z,7.78
2023-04-04T08:41:13.168Z,7.05
2023-04-04T08:43:41.598Z,6.45
2023-04-04T08:46:10.058Z,13.77
2023-04-04T08:48:37.493Z,7.07
2023-04-04T08:51:04.730Z,10.88
2023-04-04T08:53:32.390Z,6.95
2023-04-04T08:56:00.159Z,7.13
2023-04-04T08:58:27.252Z,13.02
2023-04-04T09:00:54.841Z,6.95
2023-04-04T09:03:27.427Z,7.40
2023-04-04T09:05:55.484Z,7.68
2023-04-04T09:08:24.694Z,7.63
2023-04-04T09:10:52.399Z,8.32
2023-04-04T09:13:19.640Z,7.82
2023-04-04T09:15:49.553Z,7.28
2023-04-04T09:18:16.812Z,6.80
2023-04-04T09:20:52.180Z,6.78
2023-04-04T09:23:20.901Z,6.45
2023-04-04T09:28:24.336Z,7.28
2023-04-04T09:30:52.114Z,7.40
2023-04-04T09:33:21.695Z,8.05
2023-04-04T09:35:55.979Z,6.57
2023-04-04T09:38:27.645Z,6.95
2023-04-04T09:40:55.201Z,7.40
2023-04-04T09:43:23.371Z,7.68
2023-04-04T09:45:50.340Z,8.18
2023-04-04T09:48:34.571Z,7.13
2023-04-04T09:51:05.001Z,7.95
2023-04-04T09:53:34.949Z,7.60
2023-04-04T09:56:02.873Z,7.93
2023-04-04T09:58:32.002Z,7.40
2023-04-04T10:01:03.474Z,7.60
2023-04-04T10:03:30.892Z,7.30
2023-04-04T10:06:00.857Z,8.52
2023-04-04T10:08:29.182Z,8.55
2023-04-04T10:11:10.497Z,7.68
2023-04-04T10:13:43.944Z,8.73
2023-04-04T10:16:11.724Z,6.57
2023-04-04T10:18:39.461Z,7.53
2023-04-04T10:23:38.955Z,7.53
2023-04-04T10:26:06.035Z,7.97
2023-04-04T10:28:32.696Z,7.93
2023-04-04T10:31:23.070Z,8.07
2023-04-04T10:34:12.276Z,8.55
2023-04-04T10:36:43.409Z,8.27
2023-04-04T10:39:24.955Z,8.40
2023-04-04T10:41:52.550Z,7.65
2023-04-04T10:44:37.921Z,7.50
2023-04-04T10:47:23.589Z,8.32
2023-04-04T10:49:51.599Z,8.40
2023-04-04T10:52:23.516Z,8.32
2023-04-04T10:54:55.531Z,7.65
2023-04-04T10:57:23.219Z,8.73
2023-04-04T10:59:59.390Z,8.82
2023-04-04T11:02:47.261Z,8.95
2023-04-04T11:05:22.207Z,9.23
2023-04-04T11:08:07.341Z,8.48
2023-04-04T11:10:42.300Z,8.25
2023-04-04T11:13:16.297Z,9.10
2023-04-04T11:15:59.988Z,8.30
2023-04-04T11:18:34.253Z,8.48
2023-04-04T11:21:06.605Z,8.35
2023-04-04T11:24:11.813Z,8.38
2023-04-04T11:26:42.772Z,8.27
2023-04-04T11:31:43.762Z,7.63
2023-04-04T11:34:13.976Z,8.25
2023-04-04T11:36:41.575Z,7.97
2023-04-04T11:39:11.853Z,8.50
2023-04-04T11:41:54.363Z,7.60
2023-04-04T11:44:22.597Z,8.32
2023-04-04T11:46:51.110Z,8.57
2023-04-04T11:49:18.565Z,10.30
2023-04-04T11:51:47.564Z,19.73
2023-04-04T11:54:15.730Z,7.53
2023-04-04T11:56:46.034Z,10.77
2023-04-04T11:59:13.332Z,8.65
2023-04-04T12:01:40.509Z,8.80
2023-04-04T12:04:07.143Z,8.10
2023-04-04T12:06:35.556Z,8.30
2023-04-04T12:09:06.107Z,7.60
2023-04-04T12:11:36.553Z,8.55
2023-04-04T12:14:03.113Z,8.15
2023-04-04T12:16:30.200Z,9.23
2023-04-04T12:18:57.961Z,7.50
2023-04-04T12:21:25.627Z,7.40
2023-04-04T12:23:52.594Z,8.55
2023-04-04T12:26:19.570Z,8.10
2023-04-04T12:28:46.381Z,8.25
2023-04-04T12:31:13.965Z,7.72
2023-04-04T12:33:42.214Z,8.05
2023-04-04T12:36:09.034Z,7.93
2023-04-04T12:38:55.816Z,8.50
2023-04-04T12:41:23.047Z,8.13
2023-04-04T12:43:49.599Z,9.00
2023-04-04T12:46:17.352Z,9.43
2023-04-04T12:48:44.682Z,8.52
2023-04-04T12:51:11.372Z,8.50
2023-04-04T12:53:53.735Z,8.80
2023-04-04T12:56:20.640Z,7.90
2023-04-04T12:58:48.413Z,7.72
2023-04-04T13:01:16.217Z,8.50
2023-04-04T13:03:42.978Z,8.60
2023-04-04T13:06:15.144Z,8.68
2023-04-04T13:08:52.374Z,7.63
2023-04-04T13:11:19.393Z,8.20
2023-04-04T13:16:14.573Z,8.75
2023-04-04T13:18:43.412Z,8.20
2023-04-04T13:21:13.972Z,8.00
2023-04-04T13:23:41.526Z,9.48
2023-04-04T13:26:09.594Z,8.75
2023-04-04T13:28:36.583Z,8.43
2023-04-04T13:31:04.624Z,8.55
2023-04-04T13:33:31.453Z,8.65
2023-04-04T13:35:58.816Z,9.77
2023-04-04T13:38:27.311Z,9.00
2023-04-04T13:40:54.734Z,8.40
2023-04-04T13:43:21.375Z,9.23
2023-04-04T13:45:47.992Z,9.07
2023-04-04T13:48:14.711Z,8.68
2023-04-04T13:50:43.973Z,8.23
2023-04-04T13:53:11.141Z,8.25
2023-04-04T13:55:39.111Z,7.97
2023-04-04T13:58:08.261Z,8.68
2023-04-04T14:00:35.294Z,8.20
2023-04-04T14:03:02.832Z,9.35
2023-04-04T14:05:29.428Z,9.13
2023-04-04T14:07:56.409Z,9.45
2023-04-04T14:10:23.025Z,8.52
2023-04-04T14:12:49.469Z,8.77
2023-04-04T14:15:16.025Z,9.90
2023-04-04T14:17:43.145Z,8.75
2023-04-04T14:20:10.730Z,8.63
2023-04-04T14:22:37.200Z,8.50
2023-04-04T14:25:05.081Z,8.52
2023-04-04T14:27:31.746Z,8.55
2023-04-04T14:29:58.406Z,8.70
2023-04-04T14:32:25.965Z,8.40
2023-04-04T14:34:52.577Z,8.60
2023-04-04T14:37:19.877Z,8.43
2023-04-04T14:39:46.467Z,8.50
2023-04-04T14:42:13.012Z,8.35
2023-04-04T14:44:39.554Z,7.97
2023-04-04T14:47:06.164Z,7.95
2023-04-04T14:49:33.008Z,9.13
2023-04-04T14:51:59.650Z,12.27
2023-04-04T14:54:26.248Z,8.43
2023-04-04T14:56:52.883Z,8.77
2023-04-04T14:59:19.499Z,8.32
2023-04-04T15:01:46.385Z,11.00
2023-04-04T15:04:13.015Z,10.23
2023-04-04T15:06:39.597Z,9.85
2023-04-04T15:09:06.715Z,8.63
2023-04-04T15:11:35.356Z,8.70
2023-04-04T15:14:01.989Z,8.43
2023-04-04T15:16:33.060Z,9.00
2023-04-04T15:19:03.077Z,10.48
2023-04-04T15:21:29.709Z,9.70
2023-04-04T15:23:56.259Z,9.32
2023-04-04T15:26:26.137Z,9.60
2023-04-04T15:28:52.796Z,8.57
2023-04-04T15:31:20.971Z,8.93
2023-04-04T15:33:47.799Z,10.80
2023-04-04T15:36:14.394Z,8.25
2023-04-04T15:38:40.970Z,8.65
2023-04-04T15:41:09.058Z,8.05
2023-04-04T15:43:36.756Z,8.55
2023-04-04T15:46:03.415Z,8.38
2023-04-04T15:48:30.006Z,7.88
2023-04-04T15:51:00.643Z,8.50
2023-04-04T15:53:27.220Z,8.38
2023-04-04T15:55:53.730Z,9.23
2023-04-04T15:58:20.428Z,8.60
2023-04-04T16:00:47.524Z,11.15
2023-04-04T16:03:14.360Z,8.55
2023-04-04T16:05:41.801Z,8.13
2023-04-04T16:08:08.619Z,8.20
2023-04-04T16:10:35.556Z,8.50
2023-04-04T16:13:02.061Z,8.30
2023-04-04T16:15:28.669Z,8.43
2023-04-04T16:17:58.668Z,9.23
2023-04-04T16:20:28.925Z,9.57
2023-04-04T16:22:56.133Z,9.27
2023-04-04T16:25:22.893Z,8.88
2023-04-04T16:27:49.552Z,9.18
2023-04-04T16:30:16.421Z,8.23
2023-04-04T16:32:43.094Z,8.90
2023-04-04T16:35:09.867Z,8.80
2023-04-04T16:37:36.576Z,9.13
2023-04-04T16:40:06.687Z,9.35
2023-04-04T16:42:33.319Z,8.90
2023-04-04T16:44:59.978Z,8.30
2023-04-04T16:47:27.656Z,8.68
2023-04-04T16:49:55.107Z,8.82
2023-04-04T16:52:21.653Z,8.75
2023-04-04T16:54:48.144Z,9.25
2023-04-04T16:57:14.663Z,11.40
2023-04-04T16:59:41.250Z,11.35
2023-04-04T17:02:08.317Z,9.88
2023-04-04T17:04:35.101Z,9.27
2023-04-04T17:07:02.302Z,9.48
2023-04-04T17:09:28.903Z,8.65
2023-04-04T17:11:57.333Z,8.70
2023-04-04T17:14:26.736Z,8.90
2023-04-04T17:16:54.191Z,9.15
2023-04-04T17:19:21.265Z,9.32
2023-04-04T17:21:47.872Z,9.57
2023-04-04T17:24:14.802Z,10.07
2023-04-04T17:26:41.726Z,9.15
2023-04-04T17:29:08.321Z,8.55
2023-04-04T17:31:34.895Z,9.23
2023-04-04T17:34:01.406Z,9.38
2023-04-04T17:36:28.000Z,9.18
2023-04-04T17:38:54.477Z,9.40
2023-04-04T17:41:21.027Z,10.02
2023-04-04T17:43:47.589Z,10.05
2023-04-04T17:46:16.945Z,10.65
2023-04-04T17:48:44.755Z,8.93
2023-04-04T17:51:11.581Z,9.30
2023-04-04T17:53:38.200Z,8.88
2023-04-04T17:56:04.945Z,9.20
2023-04-04T17:58:31.617Z,9.52
2023-04-04T18:00:58.358Z,9.55
2023-04-04T18:03:24.951Z,9.13
2023-04-04T18:05:52.793Z,9.20
2023-04-04T18:08:19.374Z,9.75
2023-04-04T18:10:45.941Z,8.93
2023-04-04T18:13:12.524Z,8.90
2023-04-04T18:15:39.115Z,8.10
2023-04-04T18:18:06.465Z,8.52
2023-04-04T18:20:35.209Z,9.38
2023-04-04T18:23:03.983Z,9.70
2023-04-04T18:25:31.697Z,9.63
2023-04-04T18:27:58.328Z,9.23
2023-04-04T18:30:25.403Z,10.43
2023-04-04T18:32:52.283Z,9.98
2023-04-04T18:35:19.101Z,10.18
2023-04-04T18:37:45.605Z,12.07
2023-04-04T18:40:12.339Z,10.25
2023-04-04T18:42:38.829Z,10.60
2023-04-04T18:45:08.153Z,10.88
2023-04-04T18:47:34.718Z,10.73
2023-04-04T18:50:01.527Z,11.27
2023-04-04T18:52:28.038Z,11.00
2023-04-04T18:54:54.568Z,10.32
2023-04-04T18:57:21.588Z,10.85
2023-04-04T18:59:48.120Z,13.65
2023-04-04T19:02:14.606Z,12.10
2023-04-04T19:04:41.287Z,11.57
2023-04-04T19:07:07.765Z,10.35
2023-04-04T19:09:36.055Z,10.38
2023-04-04T19:12:03.609Z,9.90
2023-04-04T19:14:30.330Z,10.68
2023-04-04T19:16:56.932Z,10.52
2023-04-04T19:19:23.511Z,9.98
2023-04-04T19:21:50.106Z,10.38
2023-04-04T19:24:17.869Z,12.00
2023-04-04T19:26:45.599Z,10.43
2023-04-04T19:29:19.444Z,11.43
2023-04-04T19:31:46.021Z,8.73
2023-04-04T19:34:15.021Z,9.68
2023-04-04T19:36:41.892Z,8.77
2023-04-04T19:39:09.412Z,9.57
2023-04-04T19:41:40.076Z,9.48
2023-04-04T19:44:16.281Z,9.20
2023-04-04T19:46:42.760Z,9.93
2023-04-04T19:49:11.812Z,9.77
2023-04-04T19:51:53.782Z,9.73
2023-04-04T19:54:25.475Z,11.35
2023-04-04T19:56:57.008Z,12.70
2023-04-04T19:59:48.564Z,10.27
2023-04-04T20:02:49.152Z,10.45
2023-04-04T20:05:33.893Z,10.73
2023-04-04T20:08:01.311Z,10.55
2023-04-04T20:10:39.423Z,11.25
2023-04-04T20:13:06.977Z,11.35
2023-04-04T20:15:45.902Z,11.15
2023-04-04T20:18:21.017Z,10.70
2023-04-04T20:21:10.519Z,10.15
2023-04-04T20:23:45.548Z,12.82
2023-04-04T20:26:15.957Z,13.43
2023-04-04T20:28:46.636Z,10.83
2023-04-04T20:31:17.924Z,10.57
2023-04-04T20:33:44.613Z,10.00
2023-04-04T20:36:21.179Z,9.65
2023-04-04T20:38:48.297Z,10.65
2023-04-04T20:41:20.738Z,10.43
2023-04-04T20:43:51.580Z,9.68
2023-04-04T20:46:19.610Z,11.73
2023-04-04T20:48:47.475Z,10.60
2023-04-04T20:51:27.113Z,10.48
2023-04-04T20:53:56.096Z,10.13
2023-04-04T20:56:41.228Z,10.57
2023-04-04T20:59:27.788Z,10.15
2023-04-04T21:01:55.066Z,10.32
2023-04-04T21:04:25.978Z,10.10
2023-04-04T21:09:19.648Z,11.15
2023-04-04T21:11:46.294Z,10.30
2023-04-04T21:14:39.080Z,10.40
2023-04-04T21:17:07.033Z,11.88
2023-04-04T21:19:33.658Z,11.15
2023-04-04T21:22:00.373Z,11.10
2023-04-04T21:24:32.630Z,11.68
2023-04-04T21:26:59.130Z,11.25
2023-04-04T21:29:26.263Z,10.48
2023-04-04T21:31:57.158Z,11.02
2023-04-04T21:34:25.559Z,10.88
2023-04-04T21:36:55.440Z,11.43
2023-04-04T21:39:28.821Z,10.98
2023-04-04T21:42:06.014Z,10.85
2023-04-04T21:44:34.670Z,10.40
2023-04-04T21:47:01.228Z,10.60
2023-04-04T21:49:28.229Z,11.48
2023-04-04T21:51:54.910Z,9.68
2023-04-04T21:54:21.509Z,11.57
2023-04-04T21:56:48.064Z,11.27
2023-04-04T21:59:14.710Z,10.30
2023-04-04T22:01:41.494Z,11.23
2023-04-04T22:04:08.270Z,11.27
2023-04-04T22:06:34.958Z,10.93
2023-04-04T22:09:05.258Z,12.20
2023-04-04T22:11:34.589Z,12.18
2023-04-04T22:14:04.815Z,11.32
2023-04-04T22:16:31.999Z,11.00
2023-04-04T22:18:58.976Z,11.05
2023-04-04T22:21:28.358Z,11.75
2023-04-04T22:24:00.823Z,12.10
2023-04-04T22:26:34.193Z,11.38
2023-04-04T22:29:05.320Z,10.90
2023-04-04T22:31:34.608Z,11.25
2023-04-04T22:34:03.204Z,12.38
2023-04-04T22:36:30.439Z,14.65
2023-04-04T22:38:57.837Z,12.65
2023-04-04T22:41:29.024Z,12.10
2023-04-04T22:43:56.910Z,11.80
2023-04-04T22:46:25.598Z,11.40
2023-04-04T22:48:55.409Z,11.82
2023-04-04T22:51:22.653Z,13.77
2023-04-04T22:53:49.169Z,11.80
2023-04-04T22:56:15.754Z,11.00
2023-04-04T22:58:42.240Z,12.75
2023-04-04T23:01:08.804Z,11.82
2023-04-04T23:03:35.621Z,10.75
2023-04-04T23:06:02.116Z,12.75
2023-04-04T23:08:28.669Z,13.13
2023-04-04T23:10:55.539Z,11.65
2023-04-04T23:13:22.321Z,10.88
2023-04-04T23:15:49.285Z,12.18
2023-04-04T23:18:15.998Z,11.48
2023-04-04T23:20:42.868Z,12.52
2023-04-04T23:23:09.633Z,12.07
2023-04-04T23:25:36.173Z,11.27
2023-04-04T23:28:02.689Z,12.50
2023-04-04T23:30:29.367Z,11.70
2023-04-04T23:32:55.946Z,11.75
2023-04-04T23:35:23.597Z,12.00
2023-04-04T23:37:50.278Z,12.82
2023-04-04T23:40:17.040Z,12.80
2023-04-04T23:42:43.647Z,10.93
2023-04-04T23:45:11.625Z,12.35
2023-04-04T23:47:38.169Z,11.90
2023-04-04T23:50:05.061Z,10.48
2023-04-04T23:52:31.634Z,11.23
2023-04-04T23:54:58.186Z,11.57
2023-04-04T23:57:24.784Z,12.90
2023-04-04T23:59:51.359Z,11.02
